Time;durP1;ratioP1;P1;durP2;ratioP2;P2;SDS_P1;SDS_P2;PMS_P1;PMS_P2;Temp;Humidity;BMP_temperature;BMP_pressure;BME280_temperature;BME280_humidity;BME280_pressure;Samples;Min_cycle;Max_cycle;Signal;HPM_P1;HPM_P2
2021/09/13 05:02:40;;;;;;;10.85;9.15;;;;;;;16.97;62.09;94772.69;4896482;29;20076;-84
2021/09/13 05:05:06;;;;;;;9.98;9.18;;;;;;;16.95;61.71;94765.09;4899859;29;20032;-85
2021/09/13 05:07:31;;;;;;;10.32;9.02;;;;;;;18.86;56.48;94763.59;4879950;29;20039;-82
2021/09/13 05:09:57;;;;;;;11.52;8.85;;;;;;;19.07;54.57;94770.91;4896664;29;20549;-85
2021/09/13 05:12:22;;;;;;;17.55;8.98;;;;;;;19.43;53.70;94770.72;4911576;29;20032;-85
2021/09/13 05:14:47;;;;;;;12.48;8.68;;;;;;;19.50;53.26;94773.25;4913463;29;20100;-85
2021/09/13 05:17:13;;;;;;;9.77;8.32;;;;;;;18.63;56.87;94779.28;4910172;29;20043;-85
2021/09/13 05:19:38;;;;;;;11.55;8.48;;;;;;;19.56;53.71;94777.56;4895679;29;20104;-83
2021/09/13 05:22:04;;;;;;;8.98;8.00;;;;;;;17.85;58.20;94771.44;4894613;29;20485;-84
2021/09/13 05:24:29;;;;;;;18.55;9.77;;;;;;;19.02;56.33;94777.88;4911180;29;20036;-85
2021/09/13 05:26:55;;;;;;;16.60;9.27;;;;;;;21.72;48.37;94779.84;4911150;29;20036;-83
2021/09/13 05:29:20;;;;;;;8.52;7.82;;;;;;;22.72;46.12;94787.38;4894334;29;20032;-84
2021/09/13 05:31:46;;;;;;;8.55;7.75;;;;;;;23.08;45.27;94783.22;4895554;29;20558;-84
2021/09/13 05:34:11;;;;;;;10.45;8.30;;;;;;;22.88;45.36;94788.31;4902265;29;20037;-84
2021/09/13 05:36:37;;;;;;;9.60;8.65;;;;;;;23.48;44.96;94782.72;4892555;29;20033;-85
2021/09/13 05:39:04;;;;;;;8.82;8.02;;;;;;;23.42;45.06;94787.19;4891005;29;20126;-85
2021/09/13 05:41:29;;;;;;;9.98;8.27;;;;;;;23.24;45.52;94787.56;4894993;29;20032;-85
2021/09/13 05:43:55;;;;;;;9.80;8.88;;;;;;;23.36;45.91;94788.19;4910667;29;20470;-84
2021/09/13 05:46:20;;;;;;;8.77;8.07;;;;;;;23.65;45.68;94785.22;4910377;29;20111;-83
2021/09/13 05:48:46;;;;;;;11.05;9.05;;;;;;;23.91;45.83;94784.31;4895178;29;20411;-83
2021/09/13 05:51:11;;;;;;;8.85;8.10;;;;;;;24.64;44.30;94785.91;4878329;29;20084;-83
2021/09/13 05:53:36;;;;;;;10.80;9.90;;;;;;;23.16;45.03;94781.94;4912091;29;20028;-83
2021/09/13 05:56:02;;;;;;;10.18;8.90;;;;;;;20.81;50.97;94785.53;4893582;29;20039;-83
2021/09/13 05:58:27;;;;;;;10.65;9.48;;;;;;;19.11;55.97;94787.81;4883318;29;20075;-84
2021/09/13 06:00:53;;;;;;;10.70;9.57;;;;;;;18.95;57.19;94793.75;4883113;29;20557;-83
2021/09/13 06:03:18;;;;;;;9.20;8.32;;;;;;;19.94;54.51;94790.19;4898778;29;20024;-84
2021/09/13 06:05:44;;;;;;;9.52;8.63;;;;;;;20.10;53.26;94789.47;4924530;29;20517;-84
2021/09/13 06:08:09;;;;;;;10.27;8.63;;;;;;;20.78;51.90;94797.34;4919535;29;20036;-83
2021/09/13 06:10:35;;;;;;;8.98;8.07;;;;;;;20.94;50.59;94793.13;4914792;29;20032;-84
2021/09/13 06:13:00;;;;;;;14.88;11.48;;;;;;;21.10;51.93;94796.81;4897252;29;20028;-83
2021/09/13 06:15:25;;;;;;;8.85;8.05;;;;;;;22.09;48.03;94793.25;4914134;29;20028;-83
2021/09/13 06:17:51;;;;;;;8.65;7.80;;;;;;;24.89;42.52;94793.91;4912790;29;20126;-82
2021/09/13 06:20:16;;;;;;;9.27;8.35;;;;;;;27.41;36.67;94789.63;4914846;29;20028;-86
2021/09/13 06:22:42;;;;;;;9.85;7.63;;;;;;;27.74;36.58;94799.44;4914323;29;20032;-83
2021/09/13 06:25:08;;;;;;;13.50;7.82;;;;;;;29.42;34.21;94793.59;4905895;29;20032;-82
2021/09/13 06:27:33;;;;;;;8.20;7.40;;;;;;;27.26;37.48;94799.63;4929264;29;20478;-82
2021/09/13 06:29:59;;;;;;;10.05;8.13;;;;;;;28.06;35.66;94806.88;4912641;29;20040;-81
2021/09/13 06:32:24;;;;;;;9.20;8.45;;;;;;;29.24;33.50;94795.22;4913923;29;20028;-82
2021/09/13 06:34:50;;;;;;;11.43;8.23;;;;;;;28.58;34.77;94800.66;4912316;29;20028;-81
2021/09/13 06:37:15;;;;;;;12.43;9.25;;;;;;;29.76;32.81;94801.31;4913882;29;20088;-82
2021/09/13 06:39:41;;;;;;;8.20;7.50;;;;;;;28.59;34.85;94807.56;4927824;29;20054;-80
2021/09/13 06:42:06;;;;;;;8.95;7.85;;;;;;;29.57;33.25;94795.22;4902082;29;20084;-81
2021/09/13 06:44:32;;;;;;;10.50;7.95;;;;;;;30.51;31.77;94806.31;4892399;29;20028;-81
2021/09/13 06:47:05;;;;;;;8.25;7.43;;;;;;;31.59;29.87;94807.16;4897229;29;20031;-81
2021/09/13 06:49:31;;;;;;;8.63;7.82;;;;;;;30.51;31.32;94809.78;4898783;29;20028;-81
2021/09/13 06:51:56;;;;;;;10.77;7.80;;;;;;;32.08;28.56;94806.94;4912238;29;20051;-81
2021/09/13 06:54:21;;;;;;;11.77;10.70;;;;;;;30.70;30.22;94810.47;4913866;29;20028;-81
2021/09/13 06:56:47;;;;;;;17.25;15.85;;;;;;;32.07;28.32;94791.97;4911566;29;20138;-81
2021/09/13 06:59:13;;;;;;;13.73;12.43;;;;;;;31.75;28.75;94811.03;4913421;29;20556;-82
2021/09/13 07:01:38;;;;;;;20.80;18.73;;;;;;;32.84;27.50;94797.56;4896019;29;20048;-81
2021/09/13 07:04:04;;;;;;;15.27;13.70;;;;;;;32.61;27.02;94806.03;4896576;29;20047;-82
2021/09/13 07:06:31;;;;;;;12.32;9.35;;;;;;;32.80;26.49;94804.66;4897259;29;20040;-81
2021/09/13 07:08:56;;;;;;;8.48;7.65;;;;;;;30.26;30.34;94797.72;4896271;29;20024;-79
2021/09/13 07:11:22;;;;;;;9.77;8.15;;;;;;;26.24;36.15;94810.00;4882084;29;20021;-80
2021/09/13 07:13:47;;;;;;;11.18;8.82;;;;;;;24.07;39.90;94810.59;4911800;29;20021;-80
2021/09/13 07:16:13;;;;;;;10.15;8.63;;;;;;;23.96;40.07;94811.59;4897213;29;20044;-80
2021/09/13 07:18:38;;;;;;;14.07;8.85;;;;;;;24.79;38.78;94807.13;4911524;29;20036;-81
2021/09/13 07:21:04;;;;;;;10.02;8.73;;;;;;;24.56;41.11;94816.34;4897669;29;20028;-81
2021/09/13 07:23:29;;;;;;;15.75;9.48;;;;;;;24.53;40.81;94810.78;4912288;29;20686;-80
2021/09/13 07:25:54;;;;;;;12.27;9.40;;;;;;;24.07;39.86;94804.50;4913290;29;20521;-82
2021/09/13 07:28:20;;;;;;;11.00;9.05;;;;;;;25.01;40.35;94809.59;4912661;29;20035;-81
2021/09/13 07:30:47;;;;;;;9.35;8.43;;;;;;;24.12;40.79;94813.28;4895532;29;20083;-81
2021/09/13 07:33:12;;;;;;;9.60;8.57;;;;;;;23.73;41.90;94813.84;4910514;29;20032;-80
2021/09/13 07:35:38;;;;;;;13.55;9.55;;;;;;;24.03;41.82;94812.16;4867483;29;20104;-81
2021/09/13 07:38:03;;;;;;;14.00;9.70;;;;;;;24.14;41.11;94810.38;4897304;29;20032;-80
2021/09/13 07:40:28;;;;;;;17.80;12.40;;;;;;;23.76;42.11;94818.63;4895622;29;20482;-81
2021/09/13 07:42:54;;;;;;;19.75;10.00;;;;;;;21.33;45.88;94812.47;4913589;29;20024;-80
2021/09/13 07:45:21;;;;;;;12.02;9.93;;;;;;;23.45;42.70;94804.38;4912249;29;20402;-80
2021/09/13 07:47:47;;;;;;;14.45;11.52;;;;;;;23.85;42.74;94811.78;4896340;29;20051;-81
2021/09/13 07:50:12;;;;;;;15.27;9.82;;;;;;;23.97;42.20;94810.53;4914136;29;20490;-80
2021/09/13 07:52:38;;;;;;;18.08;11.70;;;;;;;24.31;41.36;94815.47;4911303;29;20111;-80
2021/09/13 07:55:04;;;;;;;13.98;9.25;;;;;;;23.98;41.33;94816.63;4896990;29;20039;-81
2021/09/13 07:57:29;;;;;;;13.15;9.07;;;;;;;23.70;40.96;94817.78;4895140;29;20032;-81
2021/09/13 07:59:55;;;;;;;11.70;9.98;;;;;;;23.63;41.25;94818.00;4911817;29;20031;-79
2021/09/13 08:02:20;;;;;;;18.73;10.25;;;;;;;23.90;42.24;94814.47;4911267;29;20585;-80
2021/09/13 08:04:46;;;;;;;10.15;9.10;;;;;;;23.98;41.42;94814.78;4895779;29;20453;-80
2021/09/13 08:07:11;;;;;;;12.38;8.93;;;;;;;23.92;41.35;94820.31;4909946;29;20100;-78
2021/09/13 08:09:37;;;;;;;15.98;9.93;;;;;;;24.53;41.72;94813.44;4908095;29;20494;-78
2021/09/13 08:12:02;;;;;;;12.15;8.85;;;;;;;24.99;41.32;94817.00;4909181;29;20033;-78
2021/09/13 08:14:27;;;;;;;14.90;8.98;;;;;;;24.32;39.46;94812.56;4907371;29;20100;-79
2021/09/13 08:16:53;;;;;;;11.25;8.75;;;;;;;24.18;40.15;94808.78;4908471;29;20032;-80
2021/09/13 08:19:18;;;;;;;11.15;8.50;;;;;;;24.38;40.73;94811.53;4906782;29;20455;-79
2021/09/13 08:21:45;;;;;;;12.38;8.70;;;;;;;24.30;40.68;94811.25;4908851;29;20025;-78
2021/09/13 08:24:11;;;;;;;11.93;8.95;;;;;;;23.94;41.26;94804.97;4907965;29;20115;-79
2021/09/13 08:26:37;;;;;;;11.80;9.32;;;;;;;23.58;41.71;94812.69;4907915;29;20411;-79
2021/09/13 08:29:02;;;;;;;12.02;9.00;;;;;;;24.06;42.56;94806.34;4894743;29;20036;-79
2021/09/13 08:31:28;;;;;;;13.52;8.93;;;;;;;24.29;41.72;94807.00;4907289;29;20051;-79
2021/09/13 08:33:54;;;;;;;9.82;8.85;;;;;;;24.21;41.35;94800.34;4902619;29;20043;-79
2021/09/13 08:36:19;;;;;;;19.50;11.88;;;;;;;24.40;41.39;94812.06;4915615;29;20460;-80
2021/09/13 08:38:45;;;;;;;12.63;10.35;;;;;;;25.03;40.74;94802.16;4895965;29;20032;-80
2021/09/13 08:41:10;;;;;;;10.27;9.27;;;;;;;25.00;39.08;94800.03;4911435;29;20032;-79
2021/09/13 08:43:36;;;;;;;10.82;9.88;;;;;;;25.48;40.53;94796.84;4895799;29;20379;-80
2021/09/13 08:46:07;;;;;;;9.23;8.43;;;;;;;25.48;37.83;94796.84;4910619;29;20032;-79
2021/09/13 08:48:42;;;;;;;12.18;9.43;;;;;;;25.95;38.13;94801.81;4895510;29;20025;-80
2021/09/13 08:53:43;;;;;;;9.85;8.48;;;;;;;25.35;39.95;94791.28;4910184;29;20414;-76
2021/09/13 08:56:14;;;;;;;10.85;8.93;;;;;;;25.75;38.13;94759.41;4896248;29;20036;-79
2021/09/13 08:58:43;;;;;;;13.15;9.40;;;;;;;25.38;39.16;94788.09;4895076;29;20108;-80
2021/09/13 09:01:13;;;;;;;10.35;8.40;;;;;;;25.92;38.67;94782.97;4910319;29;20527;-79
2021/09/13 09:03:45;;;;;;;10.38;9.50;;;;;;;26.44;37.68;94779.91;4889178;29;20483;-80
2021/09/13 09:06:41;;;;;;;13.25;9.23;;;;;;;26.36;37.70;94789.22;4879286;29;20059;-80
2021/09/13 09:09:13;;;;;;;13.45;9.00;;;;;;;26.22;37.45;94785.56;4926371;29;20102;-79
2021/09/13 09:11:49;;;;;;;10.57;9.55;;;;;;;26.67;37.60;94777.38;4910296;29;20024;-79
2021/09/13 09:14:33;;;;;;;14.35;9.70;;;;;;;26.71;37.20;94778.41;4925992;29;20512;-78
2021/09/13 09:17:08;;;;;;;11.90;10.05;;;;;;;26.85;38.16;94769.84;4926550;29;20035;-81
2021/09/13 09:19:33;;;;;;;13.23;9.13;;;;;;;26.62;36.48;94768.63;4925100;29;20048;-81
2021/09/13 09:22:20;;;;;;;10.27;9.05;;;;;;;26.44;37.46;94767.41;4910913;29;20027;-79
2021/09/13 09:24:46;;;;;;;10.18;9.27;;;;;;;26.46;36.96;94759.94;4910250;29;20482;-79
2021/09/13 09:27:12;;;;;;;11.13;9.60;;;;;;;27.24;36.61;94763.44;4910264;29;20474;-79
2021/09/13 09:29:37;;;;;;;10.70;9.80;;;;;;;27.45;36.55;94766.75;4910608;29;20028;-79
2021/09/13 09:32:03;;;;;;;10.43;9.40;;;;;;;27.20;36.76;94759.72;4910669;29;20032;-79
2021/09/13 09:34:33;;;;;;;9.77;8.45;;;;;;;27.39;36.12;94751.84;4911533;29;20033;-80
2021/09/13 09:36:59;;;;;;;10.75;9.65;;;;;;;27.41;37.11;94749.72;4908947;29;20515;-79
2021/09/13 09:39:45;;;;;;;10.95;8.63;;;;;;;27.74;36.25;94754.19;4912164;29;20025;-79
2021/09/13 09:42:12;;;;;;;10.07;8.77;;;;;;;27.44;35.33;94743.84;4923746;29;20051;-80
2021/09/13 09:44:44;;;;;;;17.50;9.48;;;;;;;27.69;36.33;94756.13;4909336;29;20175;-81
2021/09/13 09:47:11;;;;;;;10.57;9.48;;;;;;;27.67;35.93;94748.44;4895158;29;20036;-79
2021/09/13 09:49:45;;;;;;;13.25;11.95;;;;;;;27.37;36.12;94743.34;4909316;29;20040;-80
2021/09/13 09:52:11;;;;;;;10.40;9.32;;;;;;;27.60;35.31;94753.28;4910349;29;20037;-84
2021/09/13 09:54:36;;;;;;;12.57;10.40;;;;;;;27.13;36.49;94732.66;4909385;29;20052;-79
2021/09/13 09:57:04;;;;;;;17.35;15.65;;;;;;;28.03;35.96;94732.03;4926172;29;20032;-79
2021/09/13 09:59:40;;;;;;;9.57;8.57;;;;;;;28.40;35.14;94728.66;4925424;29;20130;-80
2021/09/13 10:02:13;;;;;;;10.13;9.18;;;;;;;27.86;34.16;94702.41;4908786;29;20052;-86
2021/09/13 10:04:39;;;;;;;10.05;8.73;;;;;;;26.54;35.28;94730.16;4910849;29;20032;-79
2021/09/13 10:07:05;;;;;;;10.23;9.10;;;;;;;28.04;34.94;94725.63;4910546;29;20039;-79
2021/09/13 10:09:30;;;;;;;10.52;8.20;;;;;;;28.16;36.76;94731.34;4910572;29;20059;-81
2021/09/13 10:11:57;;;;;;;9.27;8.27;;;;;;;28.46;34.60;94722.97;4917218;29;20037;-80
2021/09/13 10:14:28;;;;;;;9.38;8.48;;;;;;;27.96;35.96;94718.28;4890136;29;20032;-81
2021/09/13 10:16:53;;;;;;;11.18;8.05;;;;;;;28.19;34.36;94714.81;4909009;29;20051;-81
2021/09/13 10:19:20;;;;;;;8.73;7.80;;;;;;;27.26;33.80;94709.91;4893678;29;20024;-84
2021/09/13 10:21:46;;;;;;;9.15;8.35;;;;;;;27.04;35.89;94720.22;4910528;29;20055;-81
2021/09/13 10:24:17;;;;;;;9.07;7.65;;;;;;;27.42;34.26;94707.94;4908305;29;20130;-81
2021/09/13 10:26:46;;;;;;;9.80;7.55;;;;;;;27.63;35.94;94704.00;4915455;29;20116;-84
2021/09/13 10:29:11;;;;;;;9.70;8.40;;;;;;;27.39;35.39;94709.25;4889990;29;20036;-82
2021/09/13 10:31:44;;;;;;;10.57;8.68;;;;;;;27.73;35.26;94704.69;4892770;29;20567;-81
2021/09/13 10:34:19;;;;;;;8.52;7.72;;;;;;;27.69;34.80;94702.88;4892205;29;20029;-83
2021/09/13 10:36:58;;;;;;;12.80;8.77;;;;;;;27.47;35.44;94711.34;4905781;29;20123;-82
2021/09/13 10:39:42;;;;;;;;;;;;;;;27.92;36.02;94699.41;4893196;29;20112;-81
2021/09/13 10:42:08;;;;;;;8.55;7.80;;;;;;;27.33;36.87;94705.06;4893663;29;19920;-82
2021/09/13 10:44:36;;;;;;;14.27;8.20;;;;;;;27.38;34.79;94697.06;4894801;29;20039;-82
2021/09/13 10:47:02;;;;;;;11.55;8.18;;;;;;;27.98;34.70;94700.13;4895825;29;20029;-83
2021/09/13 10:49:28;;;;;;;8.90;7.53;;;;;;;27.79;34.45;94701.97;4878719;29;20028;-84
2021/09/13 10:52:28;;;;;;;10.65;8.05;;;;;;;27.85;34.78;94690.16;4895096;29;20029;-82
2021/09/13 10:55:08;;;;;;;8.35;7.55;;;;;;;27.46;36.17;94696.44;4894633;29;20079;-83
2021/09/13 10:57:53;;;;;;;8.95;7.50;;;;;;;27.67;34.22;94687.19;4895952;29;20040;-85
2021/09/13 11:00:54;;;;;;;9.13;8.10;;;;;;;28.14;33.91;94690.91;4895108;29;20060;-83
2021/09/13 11:03:26;;;;;;;8.05;7.50;;;;;;;27.73;35.24;94686.06;4848032;29;20046;-84
2021/09/13 11:08:45;;;;;;;9.63;8.55;;;;;;;27.52;35.54;94694.53;4894848;29;20434;-80
2021/09/13 11:11:14;;;;;;;14.05;7.88;;;;;;;27.99;33.61;94677.75;4878469;29;20498;-84
2021/09/13 11:13:41;;;;;;;10.38;8.27;;;;;;;28.27;34.73;94671.53;4911625;29;20051;-82
2021/09/13 11:16:06;;;;;;;8.95;7.57;;;;;;;27.83;34.63;94671.81;4896390;29;20467;-81
2021/09/13 11:18:32;;;;;;;9.02;7.30;;;;;;;27.12;33.93;94661.91;4897823;29;20020;-81
2021/09/13 11:21:18;;;;;;;12.60;8.55;;;;;;;27.94;34.64;94667.94;4913200;29;20592;-81
2021/09/13 11:23:44;;;;;;;9.10;8.40;;;;;;;27.69;34.05;94666.38;4914680;29;20035;-80
2021/09/13 11:26:09;;;;;;;8.55;7.75;;;;;;;28.15;33.96;94665.84;4897033;29;20529;-80
2021/09/13 11:29:00;;;;;;;8.68;7.82;;;;;;;28.75;33.64;94662.31;4911956;29;20020;-81
2021/09/13 11:31:37;;;;;;;8.07;7.30;;;;;;;28.49;34.05;94652.28;4912836;29;20029;-79
2021/09/13 11:34:12;;;;;;;8.25;7.43;;;;;;;28.59;33.71;94657.47;4895965;29;20036;-82
2021/09/13 11:36:37;;;;;;;9.80;7.18;;;;;;;28.35;34.63;94651.44;4912982;29;20054;-76
2021/09/13 11:39:07;;;;;;;7.28;6.68;;;;;;;28.52;34.44;94655.16;4911460;29;20063;-81
2021/09/13 11:41:33;;;;;;;7.38;6.78;;;;;;;28.67;33.29;94648.84;4910922;29;20213;-80
2021/09/13 11:44:00;;;;;;;9.82;7.28;;;;;;;27.35;33.15;94639.06;4897374;29;20060;-84
2021/09/13 11:46:26;;;;;;;12.27;7.20;;;;;;;27.55;34.20;94644.19;4895327;29;20135;-80
2021/09/13 11:48:52;;;;;;;8.45;6.93;;;;;;;27.77;33.22;94637.56;4897045;29;20036;-81
2021/09/13 11:51:17;;;;;;;9.75;6.40;;;;;;;27.92;33.76;94640.00;4895629;29;20040;-81
2021/09/13 11:53:43;;;;;;;8.85;5.57;;;;;;;27.89;33.84;94641.38;4911459;29;20545;-82
2021/09/13 11:56:11;;;;;;;7.45;5.65;;;;;;;27.54;33.44;94633.84;4895829;29;20447;-81
2021/09/13 11:58:45;;;;;;;9.38;6.05;;;;;;;26.97;34.28;94632.03;4896171;29;20036;-83
2021/09/13 12:01:20;;;;;;;6.53;5.85;;;;;;;26.81;34.15;94639.31;4916156;29;20051;-83
2021/09/13 12:03:45;;;;;;;7.20;6.50;;;;;;;26.87;34.16;94640.09;4894987;29;20502;-81
2021/09/13 12:06:20;;;;;;;38.90;12.75;;;;;;;27.16;33.44;94628.34;4912618;29;20020;-84
2021/09/13 12:08:45;;;;;;;6.60;6.00;;;;;;;27.21;33.43;94638.16;4913306;29;20037;-82
2021/09/13 12:11:13;;;;;;;10.52;6.65;;;;;;;27.30;32.80;94636.44;4877646;29;20040;-81
2021/09/13 12:13:39;;;;;;;6.53;5.97;;;;;;;27.81;32.91;94630.56;4892940;29;20056;-83
2021/09/13 12:16:08;;;;;;;7.13;6.35;;;;;;;27.70;32.31;94622.72;4877146;29;20039;-82
2021/09/13 12:18:34;;;;;;;6.22;5.68;;;;;;;27.71;32.55;94607.50;4893366;29;20444;-78
2021/09/13 12:20:59;;;;;;;6.93;5.80;;;;;;;27.22;32.85;94613.94;4891619;29;20056;-82
2021/09/13 12:23:27;;;;;;;7.50;6.15;;;;;;;27.60;32.75;94614.84;4893339;29;20020;-82
2021/09/13 12:25:54;;;;;;;7.97;7.38;;;;;;;27.74;32.48;94615.72;4891642;29;20036;-82
2021/09/13 12:28:27;;;;;;;9.13;8.23;;;;;;;27.46;33.55;94610.50;4877855;29;20493;-82
2021/09/13 12:30:58;;;;;;;9.05;6.85;;;;;;;27.18;32.89;94610.25;4877262;29;20059;-84
2021/09/13 12:33:46;;;;;;;24.63;7.43;;;;;;;27.38;33.23;94606.56;4892529;29;20028;-81
2021/09/13 12:36:14;;;;;;;7.43;6.32;;;;;;;27.51;33.85;94605.94;4878562;29;20087;-83
2021/09/13 12:38:41;;;;;;;7.47;6.55;;;;;;;27.59;32.92;94602.63;4906755;29;20039;-80
2021/09/13 12:41:07;;;;;;;7.05;6.45;;;;;;;27.46;32.80;94605.16;4911955;29;20083;-80
2021/09/13 12:43:40;;;;;;;7.00;6.30;;;;;;;27.54;32.33;94597.38;4926312;29;20024;-82
2021/09/13 12:46:35;;;;;;;7.07;6.38;;;;;;;27.21;33.60;94603.56;4911048;29;20036;-83
2021/09/13 12:49:01;;;;;;;7.82;7.03;;;;;;;27.46;33.76;94605.16;4909975;29;20498;-81
2021/09/13 12:51:27;;;;;;;9.70;6.45;;;;;;;27.20;33.73;94599.31;4910285;29;20077;-79
2021/09/13 12:54:00;;;;;;;7.75;7.10;;;;;;;26.78;33.64;94593.88;4927035;29;20103;-80
2021/09/13 12:56:26;;;;;;;8.70;7.18;;;;;;;27.20;33.68;94601.97;4910564;29;20581;-84
2021/09/13 12:58:56;;;;;;;6.70;6.10;;;;;;;26.89;32.96;94598.84;4910926;29;20075;-84
2021/09/13 13:01:28;;;;;;;6.65;6.13;;;;;;;27.25;33.00;94604.59;4910951;29;20054;-82
2021/09/13 13:03:58;;;;;;;6.72;6.07;;;;;;;27.26;33.80;94602.72;4924426;29;20422;-83
2021/09/13 13:06:23;;;;;;;7.03;6.32;;;;;;;27.17;32.76;94594.56;4910245;29;20044;-85
2021/09/13 13:08:49;;;;;;;7.22;6.53;;;;;;;27.09;32.88;94597.84;4911437;29;20036;-83
2021/09/13 13:11:15;;;;;;;11.45;7.38;;;;;;;26.97;32.50;94597.44;4907500;29;20040;-87
2021/09/13 13:13:40;;;;;;;6.57;6.07;;;;;;;26.91;32.81;94604.66;4905477;29;20025;-84
2021/09/13 13:16:06;;;;;;;6.43;5.82;;;;;;;27.06;33.25;94603.72;4909905;29;20040;-84
2021/09/13 13:18:31;;;;;;;9.93;5.82;;;;;;;26.94;33.34;94600.69;4878309;29;20558;-82
2021/09/13 13:20:57;;;;;;;7.68;6.50;;;;;;;26.76;33.08;94598.66;4909045;29;20028;-84
2021/09/13 13:23:22;;;;;;;5.80;5.28;;;;;;;26.59;33.75;94607.84;4879522;29;20514;-81
2021/09/13 13:25:48;;;;;;;5.78;5.28;;;;;;;26.65;33.89;94604.06;4908005;29;20066;-82
2021/09/13 13:28:13;;;;;;;7.20;5.40;;;;;;;26.89;33.93;94603.38;4894414;29;20035;-83
2021/09/13 13:30:39;;;;;;;8.70;5.75;;;;;;;26.56;33.91;94600.44;4907998;29;20035;-82
2021/09/13 13:33:06;;;;;;;6.85;6.05;;;;;;;26.62;33.61;94606.50;4894254;29;20072;-82
2021/09/13 13:35:33;;;;;;;6.20;5.65;;;;;;;26.62;34.00;94599.31;4893458;29;20083;-80
2021/09/13 13:37:58;;;;;;;8.25;7.60;;;;;;;26.89;33.52;94603.38;4892991;29;20032;-82
2021/09/13 13:40:24;;;;;;;7.18;6.57;;;;;;;26.61;33.11;94596.94;4910098;29;20039;-81
2021/09/13 13:42:49;;;;;;;7.28;6.10;;;;;;;26.60;33.24;94595.34;4892387;29;20028;-80
2021/09/13 13:45:15;;;;;;;7.63;5.55;;;;;;;26.50;33.27;94596.25;4909721;29;20783;-82
2021/09/13 13:47:43;;;;;;;6.53;5.93;;;;;;;26.36;33.20;94597.94;4924081;29;20028;-83
2021/09/13 13:50:10;;;;;;;7.43;6.80;;;;;;;26.45;33.58;94596.28;4910128;29;20063;-87
2021/09/13 13:52:35;;;;;;;6.60;5.85;;;;;;;26.66;33.19;94604.88;4923839;29;20425;-83
2021/09/13 13:55:01;;;;;;;7.97;5.07;;;;;;;26.38;33.40;94614.41;4909708;29;20028;-83
2021/09/13 13:57:26;;;;;;;6.38;5.78;;;;;;;26.34;33.14;94610.72;4925291;29;20502;-80
2021/09/13 13:59:52;;;;;;;6.13;5.55;;;;;;;26.53;32.78;94606.31;4907917;29;20032;-83
2021/09/13 14:02:17;;;;;;;5.20;4.80;;;;;;;26.43;33.24;94603.72;4911021;29;20542;-81
2021/09/13 14:04:43;;;;;;;6.20;5.28;;;;;;;26.26;33.14;94605.22;4892168;29;20033;-80
2021/09/13 14:07:09;;;;;;;5.60;5.18;;;;;;;26.26;33.06;94602.56;4908972;29;20043;-81
2021/09/13 14:09:34;;;;;;;7.57;4.82;;;;;;;26.40;33.40;94612.25;4888901;29;20036;-82
2021/09/13 14:12:00;;;;;;;6.22;4.78;;;;;;;26.28;33.80;94601.19;4875034;29;20033;-80
2021/09/13 14:14:25;;;;;;;5.22;4.72;;;;;;;26.37;33.27;94607.50;4904948;29;20036;-82
2021/09/13 14:16:52;;;;;;;6.53;5.07;;;;;;;26.34;33.24;94604.59;4889858;29;20040;-84
2021/09/13 14:19:17;;;;;;;10.25;7.60;;;;;;;26.22;33.73;94604.16;4894316;29;20032;-82
2021/09/13 14:21:42;;;;;;;6.18;5.63;;;;;;;26.20;33.43;94601.78;4892910;29;20036;-79
2021/09/13 14:24:08;;;;;;;6.75;5.00;;;;;;;26.25;33.70;94607.06;4878999;29;20155;-82
2021/09/13 14:26:33;;;;;;;7.55;6.95;;;;;;;26.18;33.19;94601.25;4893716;29;20058;-83
2021/09/13 14:28:59;;;;;;;8.85;5.13;;;;;;;26.25;34.47;94608.91;4910149;29;20020;-82
2021/09/13 14:31:24;;;;;;;8.00;4.82;;;;;;;26.07;33.82;94605.81;4877435;29;20036;-82
2021/09/13 14:33:50;;;;;;;6.63;4.95;;;;;;;25.98;33.81;94606.66;4863234;29;20036;-79
2021/09/13 14:36:15;;;;;;;7.47;4.60;;;;;;;26.03;34.22;94607.44;4893690;29;20047;-81
2021/09/13 14:38:40;;;;;;;5.40;4.88;;;;;;;26.02;34.41;94600.53;4895647;29;20495;-81
2021/09/13 14:41:06;;;;;;;5.30;4.80;;;;;;;25.95;34.26;94600.06;4897086;29;20040;-84
2021/09/13 14:43:31;;;;;;;4.78;4.15;;;;;;;26.05;34.43;94600.00;4911078;29;20035;-82
2021/09/13 14:45:57;;;;;;;6.50;4.47;;;;;;;25.92;33.91;94605.13;4885099;29;20056;-80
2021/09/13 14:48:22;;;;;;;7.03;4.85;;;;;;;25.79;34.67;94595.09;4876564;29;20032;-79
2021/09/13 14:50:48;;;;;;;6.05;4.47;;;;;;;25.91;33.84;94611.50;4878392;29;20037;-82
2021/09/13 14:53:13;;;;;;;5.82;4.68;;;;;;;25.77;33.71;94603.34;4892207;29;20033;-82
2021/09/13 14:55:39;;;;;;;5.30;4.60;;;;;;;25.71;33.16;94601.78;4893589;29;20024;-82
2021/09/13 14:58:04;;;;;;;6.30;5.70;;;;;;;25.64;32.96;94601.28;4893527;29;20036;-83
2021/09/13 15:00:30;;;;;;;4.43;4.13;;;;;;;25.64;33.19;94604.75;4891682;29;20020;-80
2021/09/13 15:02:55;;;;;;;4.68;4.28;;;;;;;25.66;33.29;94610.56;4878245;29;20475;-81
2021/09/13 15:05:21;;;;;;;4.65;4.25;;;;;;;25.58;33.62;94599.72;4875894;29;20032;-82
2021/09/13 15:07:46;;;;;;;4.50;4.10;;;;;;;25.53;33.70;94603.19;4894275;29;20043;-82
2021/09/13 15:10:12;;;;;;;5.03;4.50;;;;;;;25.44;33.67;94607.44;4891565;29;20419;-82
2021/09/13 15:12:37;;;;;;;5.97;5.05;;;;;;;25.30;34.29;94603.78;4878193;29;20549;-82
2021/09/13 15:15:03;;;;;;;46.90;13.07;;;;;;;25.25;33.49;94603.81;4876895;29;20498;-83
2021/09/13 15:17:29;;;;;;;5.97;5.35;;;;;;;25.25;34.14;94609.09;4877049;29;20095;-83
2021/09/13 15:19:57;;;;;;;5.90;5.40;;;;;;;25.28;34.85;94611.22;4893456;29;20411;-80
2021/09/13 15:22:23;;;;;;;6.38;4.80;;;;;;;25.01;34.69;94598.28;4892668;29;20040;-78
2021/09/13 15:24:48;;;;;;;5.55;5.03;;;;;;;25.04;35.14;94610.22;4877763;29;20127;-82
2021/09/13 15:27:14;;;;;;;5.70;4.60;;;;;;;24.99;35.52;94612.88;4876366;29;20033;-82
2021/09/13 15:29:40;;;;;;;5.55;4.88;;;;;;;24.97;35.58;94609.72;4912422;29;20056;-82
2021/09/13 15:32:06;;;;;;;8.40;4.90;;;;;;;24.75;36.09;94614.50;4910353;29;20032;-81
2021/09/13 15:34:31;;;;;;;10.90;5.20;;;;;;;24.75;36.44;94614.50;4896040;29;20115;-83
2021/09/13 15:36:57;;;;;;;6.45;4.93;;;;;;;24.67;36.96;94608.66;4896001;29;20091;-82
2021/09/13 15:39:23;;;;;;;7.82;5.40;;;;;;;24.49;37.01;94617.16;4910424;29;20028;-80
2021/09/13 15:41:48;;;;;;;5.43;4.93;;;;;;;24.53;37.32;94626.16;4913245;29;20039;-81
2021/09/13 15:44:14;;;;;;;5.30;4.80;;;;;;;24.32;37.89;94624.56;4909883;29;20028;-82
2021/09/13 15:46:39;;;;;;;6.13;5.15;;;;;;;24.14;37.85;94628.50;4913093;29;20028;-81
2021/09/13 15:49:05;;;;;;;5.30;4.85;;;;;;;24.03;37.99;94626.88;4894214;29;20525;-82
2021/09/13 15:51:34;;;;;;;6.78;4.50;;;;;;;23.88;38.07;94634.00;4912995;29;20028;-81
2021/09/13 15:54:00;;;;;;;6.30;4.75;;;;;;;23.68;38.36;94632.06;4895116;29;20161;-81
2021/09/13 15:56:25;;;;;;;5.38;4.97;;;;;;;23.38;39.83;94630.06;4894684;29;20028;-80
2021/09/13 15:58:51;;;;;;;6.90;4.95;;;;;;;23.22;40.01;94633.69;4923516;29;20106;-80
2021/09/13 16:01:16;;;;;;;8.45;5.18;;;;;;;23.15;39.49;94619.13;4913171;29;20589;-80
2021/09/13 16:03:42;;;;;;;6.70;5.47;;;;;;;22.92;40.53;94629.06;4912857;29;20028;-80
2021/09/13 16:06:08;;;;;;;8.35;5.25;;;;;;;22.78;41.26;94629.72;4910924;29;20560;-80
2021/09/13 16:08:33;;;;;;;5.63;5.03;;;;;;;22.59;40.86;94631.94;4911069;29;20069;-80
2021/09/13 16:10:59;;;;;;;9.00;4.45;;;;;;;22.59;41.61;94631.94;4909959;29;20103;-79
2021/09/13 16:13:25;;;;;;;5.35;4.85;;;;;;;22.42;41.24;94626.00;4912056;29;20057;-79
2021/09/13 16:15:51;;;;;;;6.65;5.00;;;;;;;22.29;41.96;94629.84;4895102;29;20016;-81
2021/09/13 16:18:17;;;;;;;5.80;5.15;;;;;;;21.96;44.25;94635.38;4894923;29;20041;-81
2021/09/13 16:20:43;;;;;;;8.00;5.18;;;;;;;21.57;46.29;94634.66;4912362;29;20028;-81
2021/09/13 16:23:09;;;;;;;6.20;4.97;;;;;;;21.43;46.91;94633.41;4909134;29;20099;-81
2021/09/13 16:25:35;;;;;;;18.95;6.15;;;;;;;21.15;48.06;94636.22;4895362;29;20068;-81
2021/09/13 16:28:01;;;;;;;7.28;6.30;;;;;;;21.03;48.88;94639.72;4893525;29;20028;-81
2021/09/13 16:30:26;;;;;;;7.65;6.10;;;;;;;20.46;50.06;94591.78;4910744;29;20596;-83
2021/09/13 16:32:52;;;;;;;12.73;6.03;;;;;;;20.53;51.43;94631.09;4894013;29;20020;-83
2021/09/13 16:35:18;;;;;;;6.57;5.93;;;;;;;20.38;51.84;94631.66;4894076;29;20768;-83
2021/09/13 16:37:43;;;;;;;8.85;5.70;;;;;;;20.31;52.87;94636.28;4910835;29;20036;-83